Time;durP1;ratioP1;P1;durP2;ratioP2;P2;SDS_P1;SDS_P2;PMS_P1;PMS_P2;Temp;Humidity;BMP_temperature;BMP_pressure;BME280_temperature;BME280_humidity;BME280_pressure;Samples;Min_cycle;Max_cycle;Signal;HPM_P1;HPM_P2
2022/09/29 00:00:30;;;;;;;9.50;4.33;;;9.00;25.30;;;;;;5080014;28;20904;-72
2022/09/29 00:02:55;;;;;;;6.40;4.20;;;8.90;26.90;;;;;;5095198;28;20220;-72
2022/09/29 00:05:21;;;;;;;7.57;4.13;;;8.90;28.70;;;;;;5104063;28;20637;-72
2022/09/29 00:07:47;;;;;;;8.20;4.30;;;8.80;37.80;;;;;;5098449;28;20256;-73
2022/09/29 00:10:12;;;;;;;5.80;4.27;;;8.80;37.90;;;;;;5097526;28;20443;-71
2022/09/29 00:12:38;;;;;;;11.33;5.00;;;8.80;32.10;;;;;;5102494;28;20205;-71
2022/09/29 00:15:04;;;;;;;5.77;4.03;;;8.80;37.50;;;;;;5098199;28;20196;-72
2022/09/29 00:17:30;;;;;;;6.10;4.40;;;8.70;35.30;;;;;;5091507;28;20200;-72
2022/09/29 00:19:55;;;;;;;6.63;4.30;;;8.70;31.20;;;;;;5092590;28;20402;-72
2022/09/29 00:22:21;;;;;;;6.90;4.60;;;8.70;31.00;;;;;;5091707;28;20202;-72
2022/09/29 00:24:47;;;;;;;8.20;4.03;;;8.70;33.00;;;;;;5091118;28;20180;-71
2022/09/29 00:27:17;;;;;;;10.97;4.80;;;8.80;37.70;;;;;;5092149;28;20320;-72
2022/09/29 00:29:43;;;;;;;8.50;4.53;;;8.80;35.60;;;;;;5092424;28;20183;-72
2022/09/29 00:32:08;;;;;;;5.10;4.27;;;8.90;29.10;;;;;;5090328;28;20422;-72
2022/09/29 00:34:34;;;;;;;9.27;4.87;;;9.10;26.70;;;;;;5091064;28;20172;-72
2022/09/29 00:36:59;;;;;;;11.53;4.13;;;9.10;24.30;;;;;;5091609;28;20163;-71
2022/09/29 00:39:25;;;;;;;9.60;4.63;;;9.20;20.50;;;;;;5092014;28;20421;-71
2022/09/29 00:41:51;;;;;;;8.43;4.57;;;9.30;20.70;;;;;;5090292;28;20168;-73
2022/09/29 00:44:18;;;;;;;6.53;4.37;;;9.30;23.00;;;;;;5098021;28;20183;-71
2022/09/29 00:46:55;;;;;;;8.40;4.43;;;9.30;21.10;;;;;;5101992;28;20254;-71
2022/09/29 00:49:43;;;;;;;15.27;5.30;;;9.30;24.00;;;;;;5112369;28;20429;-71
2022/09/29 00:52:11;;;;;;;6.87;4.87;;;9.30;28.80;;;;;;5111909;28;20476;-72
2022/09/29 00:54:43;;;;;;;9.67;5.30;;;9.30;29.10;;;;;;5103031;28;21017;-70
2022/09/29 00:57:11;;;;;;;9.17;4.50;;;8.90;28.30;;;;;;5090036;28;20876;-72
2022/09/29 01:00:06;;;;;;;6.30;4.30;;;9.20;30.20;;;;;;5091929;28;20435;-72
2022/09/29 01:02:35;;;;;;;13.23;5.43;;;9.20;26.40;;;;;;5090201;28;20418;-72
2022/09/29 01:05:05;;;;;;;7.47;4.67;;;9.10;30.40;;;;;;5091513;28;20463;-72
2022/09/29 01:07:32;;;;;;;6.27;4.20;;;9.10;28.00;;;;;;5089737;28;20434;-72
2022/09/29 01:09:58;;;;;;;7.17;4.57;;;9.00;27.80;;;;;;5090082;28;20428;-72
2022/09/29 01:12:24;;;;;;;6.83;4.10;;;9.00;27.50;;;;;;5091270;28;20403;-72
2022/09/29 01:14:52;;;;;;;6.53;4.17;;;9.00;26.60;;;;;;5099812;28;20214;-72
2022/09/29 01:17:18;;;;;;;5.97;4.33;;;9.00;24.70;;;;;;5105090;28;20167;-71
2022/09/29 01:19:43;;;;;;;8.87;4.23;;;9.00;24.50;;;;;;5112188;28;20419;-72
2022/09/29 01:22:44;;;;;;;6.97;4.20;;;8.90;26.10;;;;;;5109584;28;20652;-72
2022/09/29 01:25:28;;;;;;;9.20;4.20;;;8.90;28.20;;;;;;5111603;28;20178;-72
2022/09/29 01:28:12;;;;;;;6.80;4.70;;;8.80;31.40;;;;;;5111742;28;20440;-72
2022/09/29 01:31:08;;;;;;;9.57;4.57;;;8.80;29.80;;;;;;5111164;28;20416;-72
2022/09/29 01:34:02;;;;;;;15.20;5.57;;;8.80;27.00;;;;;;5111760;28;20421;-71
2022/09/29 01:36:52;;;;;;;16.53;5.80;;;8.80;37.80;;;;;;5105703;28;20537;-72
2022/09/29 01:39:37;;;;;;;9.23;5.57;;;8.80;37.80;;;;;;5084631;28;20436;-69
2022/09/29 01:42:09;;;;;;;10.87;4.67;;;8.90;38.00;;;;;;5090588;28;20425;-73
2022/09/29 01:44:59;;;;;;;8.27;4.53;;;8.80;38.00;;;;;;5099315;28;20508;-74
2022/09/29 01:47:38;;;;;;;8.07;5.77;;;8.80;37.80;;;;;;5105813;28;20765;-72
2022/09/29 01:50:12;;;;;;;10.33;5.50;;;8.80;37.90;;;;;;5111339;28;20735;-71
2022/09/29 01:52:43;;;;;;;11.10;4.93;;;8.80;37.80;;;;;;5111211;28;20401;-72
2022/09/29 01:55:16;;;;;;;9.90;5.23;;;8.80;37.90;;;;;;5111169;28;20440;-72
2022/09/29 01:58:09;;;;;;;9.70;5.20;;;8.80;37.90;;;;;;5111130;28;20499;-71
2022/09/29 02:00:42;;;;;;;7.23;4.63;;;8.80;37.90;;;;;;5072187;28;20571;-72
2022/09/29 02:03:18;;;;;;;11.77;5.10;;;8.80;37.80;;;;;;5070144;28;20402;-71
2022/09/29 02:05:54;;;;;;;9.90;4.70;;;8.90;38.10;;;;;;5070201;28;20492;-73
2022/09/29 02:08:51;;;;;;;8.13;5.40;;;8.90;37.90;;;;;;5069725;28;20434;-72
2022/09/29 02:11:18;;;;;;;8.17;5.23;;;8.90;31.60;;;;;;5069447;28;20463;-72
2022/09/29 02:13:53;;;;;;;10.23;4.77;;;9.00;37.90;;;;;;5076675;28;20421;-71
2022/09/29 02:16:23;;;;;;;9.40;4.20;;;9.00;31.40;;;;;;5089830;28;20487;-72
2022/09/29 02:19:09;;;;;;;9.03;4.83;;;9.10;27.90;;;;;;5089957;28;20437;-72
2022/09/29 02:21:35;;;;;;;11.27;4.47;;;9.20;26.30;;;;;;5069264;28;20395;-73
2022/09/29 02:24:00;;;;;;;7.83;5.00;;;9.20;24.40;;;;;;5070207;28;20456;-72
2022/09/29 02:26:30;;;;;;;7.03;4.97;;;9.10;27.80;;;;;;5069531;28;20540;-72
2022/09/29 02:28:56;;;;;;;8.93;4.70;;;9.10;28.30;;;;;;5070188;28;20252;-72
2022/09/29 02:31:22;;;;;;;9.73;4.93;;;9.20;28.40;;;;;;5069343;28;20442;-72
2022/09/29 02:33:48;;;;;;;12.63;5.27;;;9.20;23.30;;;;;;5070287;28;20407;-72
2022/09/29 02:36:16;;;;;;;8.67;4.33;;;9.30;21.30;;;;;;5069339;28;20500;-72
2022/09/29 02:38:46;;;;;;;7.80;4.67;;;9.20;19.70;;;;;;5069765;28;20268;-72
2022/09/29 02:41:32;;;;;;;7.13;4.43;;;9.20;19.30;;;;;;5069000;28;20850;-71
2022/09/29 02:44:10;;;;;;;6.53;4.27;;;9.20;18.00;;;;;;5081739;28;20415;-72
2022/09/29 02:46:55;;;;;;;6.90;4.40;;;9.10;17.60;;;;;;5101236;28;20975;-71
2022/09/29 02:49:38;;;;;;;7.60;4.60;;;9.00;20.70;;;;;;5110164;28;20433;-72
2022/09/29 02:52:31;;;;;;;9.47;4.87;;;9.00;20.40;;;;;;5109790;28;20405;-72
2022/09/29 02:55:13;;;;;;;8.00;4.53;;;9.00;20.60;;;;;;5098390;28;20453;-72
2022/09/29 02:57:52;;;;;;;5.20;4.13;;;9.10;18.80;;;;;;5089420;28;20445;-72
2022/09/29 03:00:18;;;;;;;6.53;4.00;;;9.10;18.50;;;;;;5089578;28;20413;-72
2022/09/29 03:02:45;;;;;;;9.90;4.17;;;9.10;18.00;;;;;;5089773;28;20402;-72
2022/09/29 03:05:17;;;;;;;9.00;4.83;;;9.10;19.40;;;;;;5088443;28;20504;-72
2022/09/29 03:07:42;;;;;;;8.10;5.10;;;9.00;21.80;;;;;;5089921;28;20988;-72
2022/09/29 03:10:09;;;;;;;8.63;5.73;;;9.10;21.50;;;;;;5089642;28;20492;-72
2022/09/29 03:12:35;;;;;;;9.10;6.03;;;9.10;20.50;;;;;;5089472;28;20175;-71
2022/09/29 03:15:02;;;;;;;11.23;5.40;;;9.00;21.10;;;;;;5098031;28;20498;-72
2022/09/29 03:17:27;;;;;;;14.60;5.27;;;9.00;24.50;;;;;;5104825;28;20202;-71
2022/09/29 03:19:53;;;;;;;10.17;5.70;;;9.00;23.20;;;;;;5111646;28;20929;-71
2022/09/29 03:22:18;;;;;;;11.17;5.33;;;9.10;22.50;;;;;;5113236;28;20178;-72
2022/09/29 03:24:44;;;;;;;8.37;5.27;;;9.00;25.20;;;;;;5113818;28;20224;-72
2022/09/29 03:27:10;;;;;;;11.97;6.57;;;9.10;30.10;;;;;;5112326;28;20174;-72
2022/09/29 03:29:36;;;;;;;8.93;5.90;;;9.00;32.20;;;;;;5114004;28;20218;-71
2022/09/29 03:32:03;;;;;;;11.07;6.00;;;9.00;38.00;;;;;;5113009;28;20409;-72
2022/09/29 03:34:28;;;;;;;10.73;5.93;;;9.10;38.10;;;;;;5113974;28;20762;-71
2022/09/29 03:36:56;;;;;;;11.60;6.60;;;9.10;38.20;;;;;;5101369;28;20480;-71
2022/09/29 03:39:22;;;;;;;9.70;6.20;;;9.10;38.20;;;;;;5093012;28;20291;-72
2022/09/29 03:41:48;;;;;;;8.83;6.40;;;9.20;38.20;;;;;;5093001;28;20398;-71
2022/09/29 03:44:13;;;;;;;8.20;5.70;;;9.20;38.10;;;;;;5097547;28;20781;-71
2022/09/29 03:46:39;;;;;;;11.30;6.10;;;9.20;38.20;;;;;;5104522;28;20179;-71
2022/09/29 03:49:05;;;;;;;14.87;7.03;;;9.30;38.30;;;;;;5113679;28;20202;-72
2022/09/29 03:51:30;;;;;;;9.43;6.43;;;9.30;38.30;;;;;;5112483;28;20175;-72
2022/09/29 03:53:56;;;;;;;9.83;6.60;;;9.30;38.30;;;;;;5113659;28;20175;-72
2022/09/29 03:56:22;;;;;;;11.03;6.43;;;9.20;38.30;;;;;;5112821;28;20252;-72
2022/09/29 03:58:47;;;;;;;11.03;6.23;;;9.20;38.30;;;;;;5113815;28;20195;-72
2022/09/29 04:01:13;;;;;;;9.67;6.37;;;9.20;38.20;;;;;;5112462;28;20213;-72
2022/09/29 04:03:38;;;;;;;8.20;5.97;;;9.20;38.30;;;;;;5112139;28;20282;-72
2022/09/29 04:06:04;;;;;;;10.37;6.17;;;9.10;38.10;;;;;;5101399;28;20252;-70
2022/09/29 04:08:29;;;;;;;8.43;6.33;;;9.00;38.10;;;;;;5071397;28;20261;-71
2022/09/29 04:10:55;;;;;;;12.67;6.13;;;9.00;38.00;;;;;;5071944;28;20636;-70
2022/09/29 04:13:20;;;;;;;9.90;6.27;;;8.90;37.90;;;;;;5075895;28;20467;-72
2022/09/29 04:15:49;;;;;;;11.23;6.60;;;8.90;37.90;;;;;;5094893;28;20422;-72
2022/09/29 04:18:15;;;;;;;10.77;6.67;;;8.70;37.80;;;;;;5091207;28;20187;-72
2022/09/29 04:20:40;;;;;;;8.80;5.90;;;8.70;37.90;;;;;;5091896;28;20405;-72
2022/09/29 04:23:06;;;;;;;14.73;6.70;;;8.70;37.80;;;;;;5092451;28;20181;-72
2022/09/29 04:25:32;;;;;;;12.30;6.40;;;8.60;37.90;;;;;;5091684;28;20175;-71
2022/09/29 04:27:58;;;;;;;10.30;5.93;;;8.60;37.70;;;;;;5092678;28;20196;-73
2022/09/29 04:30:24;;;;;;;9.60;5.73;;;8.50;37.60;;;;;;5089836;28;21020;-71
2022/09/29 04:32:49;;;;;;;11.60;5.80;;;8.50;37.50;;;;;;5092465;28;20172;-71
2022/09/29 04:35:15;;;;;;;11.23;6.13;;;8.40;37.50;;;;;;5090449;28;20352;-73
2022/09/29 04:37:40;;;;;;;9.97;5.10;;;8.30;37.20;;;;;;5092203;28;20188;-72
2022/09/29 04:40:06;;;;;;;9.50;6.17;;;8.20;37.30;;;;;;5090753;28;20168;-72
2022/09/29 04:42:32;;;;;;;8.13;4.80;;;8.10;37.20;;;;;;5091882;28;20534;-72
2022/09/29 04:44:57;;;;;;;7.87;5.40;;;8.00;37.30;;;;;;5100599;28;20178;-71
2022/09/29 04:47:23;;;;;;;7.97;5.10;;;8.00;37.10;;;;;;5105393;28;20254;-73
2022/09/29 04:49:49;;;;;;;10.30;4.80;;;7.90;37.20;;;;;;5112374;28;20665;-72
2022/09/29 04:52:14;;;;;;;12.10;4.90;;;7.90;37.10;;;;;;5112050;28;20175;-71
2022/09/29 04:54:40;;;;;;;9.23;4.73;;;7.90;37.10;;;;;;5102706;28;20413;-71
2022/09/29 04:57:06;;;;;;;9.50;5.03;;;7.90;37.10;;;;;;5091456;28;20658;-74
2022/09/29 04:59:32;;;;;;;8.80;4.60;;;7.80;37.00;;;;;;5092054;28;20192;-70
2022/09/29 05:01:58;;;;;;;9.07;5.30;;;7.80;37.00;;;;;;5090916;28;20410;-73
2022/09/29 05:04:23;;;;;;;13.17;5.03;;;7.80;36.90;;;;;;5091903;28;20414;-71
2022/09/29 05:06:49;;;;;;;10.53;4.80;;;7.90;37.00;;;;;;5091266;28;20706;-72
2022/09/29 05:09:15;;;;;;;8.20;5.17;;;8.10;29.60;;;;;;5091768;28;20656;-71
2022/09/29 05:11:40;;;;;;;11.17;5.00;;;8.20;27.70;;;;;;5089713;28;20203;-73
2022/09/29 05:14:06;;;;;;;17.87;9.83;;;8.30;26.50;;;;;;5096327;28;20175;-71
2022/09/29 05:16:31;;;;;;;8.33;5.40;;;8.40;26.40;;;;;;5102500;28;20202;-72
2022/09/29 05:18:57;;;;;;;7.07;5.10;;;8.50;26.40;;;;;;5111869;28;20270;-72
2022/09/29 05:21:23;;;;;;;11.30;6.23;;;8.50;27.20;;;;;;5111304;28;20270;-73
2022/09/29 05:23:49;;;;;;;9.87;5.10;;;8.60;27.50;;;;;;5110842;28;20167;-72
2022/09/29 05:26:15;;;;;;;9.23;5.33;;;8.60;24.50;;;;;;5111427;28;20766;-71
2022/09/29 05:28:46;;;;;;;10.20;5.80;;;8.50;26.00;;;;;;5111829;28;20259;-72
2022/09/29 05:31:12;;;;;;;7.67;5.63;;;8.50;25.50;;;;;;5110808;28;20910;-73
2022/09/29 05:33:38;;;;;;;9.67;5.30;;;8.40;26.30;;;;;;5111470;28;20555;-71
2022/09/29 05:36:09;;;;;;;10.23;5.53;;;8.50;28.90;;;;;;5110519;28;21014;-72
2022/09/29 05:38:36;;;;;;;12.27;5.47;;;8.50;25.80;;;;;;5089598;28;20843;-72
2022/09/29 05:41:10;;;;;;;9.80;5.67;;;8.50;24.10;;;;;;5090191;28;20458;-70
2022/09/29 05:43:36;;;;;;;11.30;4.90;;;8.60;24.60;;;;;;5090579;28;20453;-71
2022/09/29 05:46:04;;;;;;;9.30;5.47;;;8.60;22.10;;;;;;5102126;28;20458;-72
2022/09/29 05:48:29;;;;;;;10.43;5.63;;;8.60;24.70;;;;;;5111304;28;20233;-72
2022/09/29 05:50:56;;;;;;;11.27;6.37;;;8.70;22.50;;;;;;5110567;28;20409;-71
2022/09/29 05:53:22;;;;;;;10.23;8.03;;;8.70;23.40;;;;;;5110013;28;20182;-72
2022/09/29 05:55:48;;;;;;;7.40;5.60;;;8.80;25.20;;;;;;5110601;28;20480;-72
2022/09/29 05:58:13;;;;;;;10.63;5.60;;;9.20;23.30;;;;;;5107730;28;20195;-72
2022/09/29 06:00:39;;;;;;;9.80;5.60;;;8.60;24.10;;;;;;5071925;28;20181;-71
2022/09/29 06:03:04;;;;;;;9.17;6.00;;;8.60;27.50;;;;;;5070301;28;20195;-72
2022/09/29 06:05:30;;;;;;;9.57;5.70;;;8.70;26.90;;;;;;5069711;28;20184;-72
2022/09/29 06:07:56;;;;;;;7.03;6.00;;;8.90;26.30;;;;;;5070640;28;20227;-73
2022/09/29 06:10:21;;;;;;;10.00;5.60;;;8.90;25.20;;;;;;5068345;28;20680;-72
2022/09/29 06:12:47;;;;;;;8.27;5.90;;;9.10;25.10;;;;;;5068853;28;20176;-72
2022/09/29 06:15:13;;;;;;;8.63;6.00;;;9.30;21.50;;;;;;5091789;28;20210;-72
2022/09/29 06:17:38;;;;;;;10.67;6.37;;;9.40;21.00;;;;;;5088270;28;20263;-74
2022/09/29 06:20:05;;;;;;;9.53;6.23;;;9.50;19.70;;;;;;5090360;28;20165;-72
2022/09/29 06:22:31;;;;;;;8.90;6.03;;;9.60;14.00;;;;;;5089979;28;20560;-72
2022/09/29 06:24:57;;;;;;;9.23;6.07;;;9.60;14.50;;;;;;5090129;28;20414;-74
2022/09/29 06:27:23;;;;;;;12.33;6.23;;;9.60;14.90;;;;;;5090020;28;20494;-74
2022/09/29 06:29:48;;;;;;;9.23;6.17;;;9.70;17.50;;;;;;5089896;28;20219;-73
2022/09/29 06:32:14;;;;;;;9.30;6.13;;;9.90;14.40;;;;;;5089338;28;20418;-73
2022/09/29 06:37:33;;;;;;;11.57;7.70;;;10.10;12.30;;;;;;5090196;28;20171;-74
2022/09/29 06:37:35;;;;;;;10.90;6.40;;;10.20;9.60;;;;;;5090008;28;20459;-73
2022/09/29 06:40:03;;;;;;;11.97;6.57;;;10.20;6.40;;;;;;5089885;28;20405;-73
2022/09/29 06:42:28;;;;;;;10.73;7.10;;;10.30;7.00;;;;;;5089534;28;20501;-73
2022/09/29 06:44:54;;;;;;;8.73;6.13;;;10.50;6.40;;;;;;5098524;28;20858;-74
2022/09/29 06:47:20;;;;;;;7.27;5.80;;;10.70;2.30;;;;;;5104161;28;20676;-73
2022/09/29 06:49:45;;;;;;;11.67;6.27;;;11.00;1.40;;;;;;5110536;28;20666;-73
2022/09/29 06:52:11;;;;;;;10.00;6.20;;;11.20;1.00;;;;;;5109569;28;20160;-74
2022/09/29 06:54:36;;;;;;;10.17;5.83;;;11.50;1.00;;;;;;5104394;28;20248;-74
2022/09/29 06:57:02;;;;;;;9.93;5.97;;;12.00;1.00;;;;;;5093326;28;20225;-73
2022/09/29 06:59:27;;;;;;;11.57;6.47;;;12.20;1.00;;;;;;5094185;28;20188;-74
2022/09/29 07:01:53;;;;;;;14.27;6.27;;;12.00;1.00;;;;;;5093356;28;20168;-74
2022/09/29 07:04:20;;;;;;;15.77;6.50;;;11.80;1.00;;;;;;5093034;28;20195;-73
2022/09/29 07:06:46;;;;;;;10.63;6.23;;;11.60;1.00;;;;;;5093443;28;20203;-73
2022/09/29 07:09:14;;;;;;;11.77;5.90;;;11.50;1.00;;;;;;5094000;28;20461;-76
2022/09/29 07:11:44;;;;;;;9.43;5.50;;;11.60;1.00;;;;;;5093144;28;20174;-74
2022/09/29 07:14:10;;;;;;;7.70;5.37;;;11.60;1.00;;;;;;5099079;28;20416;-74
2022/09/29 07:16:35;;;;;;;10.03;5.50;;;11.70;1.00;;;;;;5105161;28;20452;-73
2022/09/29 07:19:01;;;;;;;10.17;7.50;;;11.70;1.00;;;;;;5113988;28;20456;-74
2022/09/29 07:21:26;;;;;;;11.90;7.70;;;11.90;1.00;;;;;;5111780;28;20187;-74
2022/09/29 07:23:52;;;;;;;8.60;6.57;;;12.10;1.00;;;;;;5114455;28;20248;-74
2022/09/29 07:26:17;;;;;;;17.87;7.10;;;12.20;1.00;;;;;;5113140;28;20179;-74
2022/09/29 07:28:45;;;;;;;12.83;6.97;;;12.30;1.00;;;;;;5114075;28;20198;-74
2022/09/29 07:31:17;;;;;;;13.83;6.70;;;12.50;1.00;;;;;;5113329;28;20167;-74
2022/09/29 07:33:43;;;;;;;12.73;6.27;;;12.70;1.00;;;;;;5114344;28;20397;-74
2022/09/29 07:36:09;;;;;;;10.83;6.10;;;13.00;1.00;;;;;;5110852;28;20456;-74
2022/09/29 07:38:35;;;;;;;24.70;6.67;;;13.00;1.00;;;;;;5093215;28;20772;-75
2022/09/29 07:41:02;;;;;;;10.97;6.83;;;12.90;1.00;;;;;;5092321;28;20164;-72
2022/09/29 07:43:29;;;;;;;11.20;6.27;;;13.00;1.00;;;;;;5093373;28;20176;-74
2022/09/29 07:45:55;;;;;;;9.87;6.43;;;13.10;1.00;;;;;;5103676;28;20408;-74
2022/09/29 07:48:21;;;;;;;11.60;6.50;;;13.30;1.00;;;;;;5113789;28;20468;-74
2022/09/29 07:50:46;;;;;;;8.60;6.43;;;13.60;1.00;;;;;;5112986;28;20617;-74
2022/09/29 07:53:12;;;;;;;11.47;6.27;;;13.90;1.00;;;;;;5113224;27;20466;-74
2022/09/29 07:55:38;;;;;;;10.40;6.70;;;14.00;1.00;;;;;;5111461;28;20195;-73
2022/09/29 07:58:04;;;;;;;9.03;6.30;;;14.10;1.00;;;;;;5113518;28;20183;-74
2022/09/29 08:00:30;;;;;;;8.90;6.70;;;14.30;1.00;;;;;;5112722;28;20806;-74
2022/09/29 08:03:01;;;;;;;15.30;7.30;;;14.30;1.00;;;;;;5113315;28;20401;-74
2022/09/29 08:05:27;;;;;;;10.83;7.10;;;14.40;1.00;;;;;;5111517;28;20404;-74
2022/09/29 08:07:53;;;;;;;10.83;6.87;;;14.20;1.00;;;;;;5111685;28;21039;-74
2022/09/29 08:10:19;;;;;;;9.30;5.97;;;14.30;1.00;;;;;;5072817;28;20427;-74
2022/09/29 08:12:44;;;;;;;9.13;6.50;;;14.20;1.00;;;;;;5072363;28;20209;-74
2022/09/29 08:15:10;;;;;;;8.63;5.70;;;14.30;1.00;;;;;;5093879;28;20453;-74
2022/09/29 08:17:36;;;;;;;8.27;6.03;;;14.40;1.00;;;;;;5091814;28;20188;-74
2022/09/29 08:20:01;;;;;;;9.03;6.00;;;14.70;1.00;;;;;;5092380;28;20631;-73
2022/09/29 08:22:27;;;;;;;8.57;6.10;;;14.90;1.00;;;;;;5091686;28;20208;-73
2022/09/29 08:24:53;;;;;;;10.30;6.20;;;15.30;1.00;;;;;;5091207;28;20164;-74
2022/09/29 08:27:18;;;;;;;7.43;5.07;;;16.30;1.00;;;;;;5092098;28;20171;-74
2022/09/29 08:29:44;;;;;;;10.23;5.63;;;17.00;1.00;;;;;;5092488;28;20426;-76
2022/09/29 08:32:09;;;;;;;10.93;6.77;;;17.80;1.00;;;;;;5091527;28;20349;-74
2022/09/29 08:34:35;;;;;;;9.03;6.60;;;18.30;1.00;;;;;;5092542;28;20182;-74
2022/09/29 08:37:01;;;;;;;9.60;6.30;;;18.50;1.00;;;;;;5090964;28;20195;-74
2022/09/29 08:39:27;;;;;;;8.03;6.37;;;18.50;1.00;;;;;;5095037;28;20188;-74
2022/09/29 08:42:12;;;;;;;10.87;6.50;;;19.10;1.00;;;;;;5091636;28;20205;-75
2022/09/29 08:44:44;;;;;;;8.87;6.30;;;18.60;1.00;;;;;;5099155;28;20195;-74
2022/09/29 08:47:34;;;;;;;11.80;6.33;;;18.30;1.00;;;;;;5104774;28;20483;-75
2022/09/29 08:50:05;;;;;;;10.10;6.07;;;18.00;1.00;;;;;;5112373;28;20409;-74
2022/09/29 08:52:35;;;;;;;9.53;6.07;;;17.80;1.00;;;;;;5111668;28;20409;-74
2022/09/29 08:55:21;;;;;;;11.10;6.47;;;17.40;1.00;;;;;;5091760;28;20410;-74
2022/09/29 08:57:47;;;;;;;7.93;5.67;;;17.10;1.00;;;;;;5091177;28;20422;-74
2022/09/29 09:00:15;;;;;;;15.90;5.73;;;16.80;1.00;;;;;;5091919;28;20495;-73
2022/09/29 09:03:03;;;;;;;8.83;5.30;;;16.70;1.00;;;;;;5090926;28;20431;-74
2022/09/29 09:06:00;;;;;;;8.13;5.30;;;16.40;1.00;;;;;;5090957;28;20944;-74
2022/09/29 09:08:45;;;;;;;8.93;5.50;;;16.40;1.00;;;;;;5092047;28;20896;-74
2022/09/29 09:11:14;;;;;;;14.00;5.07;;;16.40;1.00;;;;;;5090670;28;20410;-74
2022/09/29 09:13:48;;;;;;;8.40;5.40;;;16.50;1.00;;;;;;5092370;28;20409;-74
2022/09/29 09:16:14;;;;;;;7.30;4.83;;;16.50;1.00;;;;;;5102459;28;20451;-74
2022/09/29 09:18:44;;;;;;;8.40;4.93;;;16.40;1.00;;;;;;5111616;28;20432;-74
2022/09/29 09:21:17;;;;;;;8.83;5.53;;;16.40;1.00;;;;;;5110724;28;20220;-74
2022/09/29 09:23:53;;;;;;;7.27;4.97;;;16.70;1.00;;;;;;5112038;28;20813;-74
2022/09/29 09:26:36;;;;;;;12.07;5.00;;;16.70;1.00;;;;;;5111109;28;20432;-75
2022/09/29 09:29:10;;;;;;;7.33;5.13;;;17.00;1.00;;;;;;5111314;28;20881;-75
2022/09/29 09:31:45;;;;;;;6.60;5.10;;;17.20;1.00;;;;;;5110661;28;20401;-73
2022/09/29 09:34:16;;;;;;;7.70;4.80;;;17.80;1.00;;;;;;5111579;28;20415;-74
2022/09/29 09:36:57;;;;;;;8.60;5.07;;;17.90;1.00;;;;;;5105354;28;20859;-74
2022/09/29 09:39:31;;;;;;;8.70;5.80;;;18.10;1.00;;;;;;5090371;28;20494;-74
2022/09/29 09:42:00;;;;;;;9.10;6.20;;;18.30;1.00;;;;;;5090753;28;20803;-75
2022/09/29 09:44:33;;;;;;;10.07;6.10;;;18.40;1.00;;;;;;5098225;28;20408;-74
2022/09/29 09:47:28;;;;;;;9.87;5.90;;;19.20;1.00;;;;;;5102143;28;20522;-75
2022/09/29 09:50:00;;;;;;;11.30;6.23;;;20.90;1.00;;;;;;5111003;28;20454;-74
2022/09/29 09:52:31;;;;;;;8.13;5.70;;;22.20;1.00;;;;;;5110512;28;20411;-74
2022/09/29 09:55:04;;;;;;;15.20;5.87;;;22.20;1.00;;;;;;5110636;28;20767;-75
2022/09/29 09:58:01;;;;;;;10.07;5.60;;;21.40;1.00;;;;;;5109548;28;20926;-72
2022/09/29 10:00:49;;;;;;;9.10;5.90;;;20.80;1.00;;;;;;5108771;28;21047;-71
2022/09/29 10:03:15;;;;;;;9.87;5.70;;;19.80;1.00;;;;;;5111264;28;20397;-72
2022/09/29 10:05:44;;;;;;;8.53;5.23;;;19.00;1.00;;;;;;5110162;28;20405;-72
2022/09/29 10:08:22;;;;;;;13.07;5.90;;;18.60;1.00;;;;;;5110943;28;20423;-72
2022/09/29 10:10:47;;;;;;;6.90;5.60;;;18.20;1.00;;;;;;5109956;28;20465;-72
2022/09/29 10:13:14;;;;;;;7.50;5.53;;;17.80;1.00;;;;;;5108603;28;20412;-72
2022/09/29 10:15:59;;;;;;;12.30;5.17;;;17.90;1.00;;;;;;5088443;28;20196;-71
2022/09/29 10:18:42;;;;;;;8.87;5.00;;;18.10;1.00;;;;;;5088714;28;20468;-72
2022/09/29 10:21:22;;;;;;;8.77;4.93;;;18.60;1.00;;;;;;5089275;28;20490;-71
2022/09/29 10:23:52;;;;;;;8.50;4.80;;;18.90;1.00;;;;;;5090625;28;20402;-72
2022/09/29 10:26:24;;;;;;;6.30;4.77;;;18.90;1.00;;;;;;5088156;28;20414;-72
2022/09/29 10:28:51;;;;;;;8.80;4.90;;;18.60;1.00;;;;;;5089822;28;20536;-72
2022/09/29 10:31:25;;;;;;;7.17;4.70;;;18.50;1.00;;;;;;5089442;28;20410;-72
2022/09/29 10:33:56;;;;;;;10.37;5.80;;;18.40;1.00;;;;;;5089103;28;20795;-72
2022/09/29 10:36:25;;;;;;;9.27;6.10;;;18.40;1.00;;;;;;5087987;28;20454;-74
2022/09/29 10:38:52;;;;;;;6.73;4.77;;;18.20;1.00;;;;;;5090416;28;20509;-75
2022/09/29 10:41:18;;;;;;;7.43;5.27;;;18.20;1.00;;;;;;5089122;28;21029;-74
2022/09/29 10:43:46;;;;;;;9.47;4.80;;;18.50;1.00;;;;;;5090161;28;20467;-76
2022/09/29 10:46:48;;;;;;;8.60;5.10;;;18.90;1.00;;;;;;5101433;28;20413;-74
2022/09/29 10:49:28;;;;;;;8.13;4.40;;;19.40;1.00;;;;;;5110432;28;20446;-73
2022/09/29 10:51:57;;;;;;;8.97;4.77;;;20.20;1.00;;;;;;5109430;28;20840;-74
2022/09/29 10:54:27;;;;;;;8.23;4.80;;;20.90;1.00;;;;;;5103249;28;20441;-74
2022/09/29 10:56:54;;;;;;;6.80;4.30;;;21.10;1.00;;;;;;5089197;28;20514;-74
2022/09/29 10:59:21;;;;;;;10.00;4.50;;;21.60;1.00;;;;;;5089793;28;20516;-74
2022/09/29 11:01:52;;;;;;;7.50;4.60;;;22.00;1.00;;;;;;5089121;28;20408;-74
2022/09/29 11:04:31;;;;;;;6.87;4.40;;;22.10;1.00;;;;;;5090126;28;20748;-74
2022/09/29 11:07:09;;;;;;;15.33;4.97;;;22.10;1.00;;;;;;5088888;28;20904;-74
2022/09/29 11:09:40;;;;;;;7.47;4.63;;;21.90;1.00;;;;;;5089516;28;20441;-75
2022/09/29 11:12:26;;;;;;;7.17;4.60;;;21.30;1.00;;;;;;5089349;28;20401;-75
2022/09/29 11:14:51;;;;;;;6.50;4.70;;;21.20;1.00;;;;;;5098000;28;20413;-74
2022/09/29 11:17:23;;;;;;;7.33;4.27;;;21.20;1.00;;;;;;5103432;28;20456;-74
2022/09/29 11:19:55;;;;;;;8.33;4.33;;;21.20;1.00;;;;;;5109872;28;20171;-74
2022/09/29 11:23:00;;;;;;;6.60;4.37;;;21.30;1.00;;;;;;5109106;28;20434;-75
2022/09/29 11:25:46;;;;;;;6.27;3.93;;;21.70;1.00;;;;;;5108031;28;20412;-74
2022/09/29 11:28:42;;;;;;;6.43;4.47;;;22.30;1.00;;;;;;5109991;28;20489;-74
2022/09/29 11:31:39;;;;;;;8.47;4.23;;;22.80;1.00;;;;;;5109169;28;20464;-74
2022/09/29 11:34:32;;;;;;;10.70;4.60;;;22.60;1.00;;;;;;5109901;28;20512;-74
2022/09/29 11:37:10;;;;;;;7.80;4.30;;;21.80;1.00;;;;;;5101158;28;20464;-74
2022/09/29 11:39:49;;;;;;;9.77;4.70;;;20.90;1.00;;;;;;5088579;28;20433;-76
2022/09/29 11:42:29;;;;;;;10.00;5.03;;;20.70;1.00;;;;;;5092893;28;20416;-74
2022/09/29 11:45:00;;;;;;;9.33;4.60;;;20.30;1.00;;;;;;5101788;28;20422;-74
2022/09/29 11:47:50;;;;;;;8.70;4.30;;;20.00;1.00;;;;;;5108094;28;20409;-74
2022/09/29 11:50:48;;;;;;;8.60;5.07;;;19.90;1.00;;;;;;5113189;28;20397;-74
2022/09/29 11:53:43;;;;;;;8.77;4.20;;;19.30;1.00;;;;;;5112062;28;20417;-75
2022/09/29 11:56:16;;;;;;;8.23;4.67;;;19.00;1.00;;;;;;5111458;28;20513;-74
2022/09/29 11:59:11;;;;;;;11.40;5.07;;;18.70;1.00;;;;;;5113392;28;20426;-74
2022/09/29 12:02:04;;;;;;;9.50;4.87;;;18.60;1.00;;;;;;5112479;28;20508;-74
2022/09/29 12:04:45;;;;;;;8.93;5.53;;;18.50;1.00;;;;;;5113349;28;20401;-74
2022/09/29 12:07:12;;;;;;;13.77;4.47;;;18.20;1.00;;;;;;5112465;28;20770;-74
2022/09/29 12:10:03;;;;;;;8.73;4.63;;;18.00;1.00;;;;;;5112902;28;20394;-74
2022/09/29 12:12:38;;;;;;;10.33;4.50;;;17.80;1.00;;;;;;5111105;28;20462;-73
2022/09/29 12:15:33;;;;;;;8.90;5.00;;;17.80;1.00;;;;;;5098415;28;20405;-75
2022/09/29 12:18:07;;;;;;;7.17;5.00;;;18.00;1.00;;;;;;5084789;28;20423;-74
2022/09/29 12:20:40;;;;;;;6.50;4.53;;;18.10;1.00;;;;;;5071936;28;20866;-74
2022/09/29 12:23:10;;;;;;;12.43;4.60;;;18.20;1.00;;;;;;5072168;28;20465;-75
2022/09/29 12:25:46;;;;;;;10.87;4.87;;;18.40;1.00;;;;;;5084599;28;21279;-74
2022/09/29 12:28:17;;;;;;;11.03;4.97;;;18.70;1.00;;;;;;5092334;28;20486;-75
2022/09/29 12:30:51;;;;;;;7.40;4.80;;;19.00;1.00;;;;;;5091917;28;20849;-74
2022/09/29 12:33:27;;;;;;;7.80;4.87;;;19.40;1.00;;;;;;5091254;28;20908;-74
2022/09/29 12:36:42;;;;;;;8.17;5.03;;;19.50;1.00;;;;;;5091632;28;20455;-74
2022/09/29 12:39:14;;;;;;;10.07;4.70;;;19.80;1.00;;;;;;5091856;28;20515;-75
2022/09/29 12:41:47;;;;;;;7.13;4.80;;;20.10;1.00;;;;;;5091635;28;20471;-74
2022/09/29 12:44:19;;;;;;;6.53;4.70;;;20.30;1.00;;;;;;5097446;28;20409;-75
2022/09/29 12:47:11;;;;;;;8.20;4.73;;;20.20;1.00;;;;;;5103401;28;20397;-74
2022/09/29 12:49:54;;;;;;;7.00;4.60;;;20.00;1.00;;;;;;5101929;28;20422;-74
2022/09/29 12:52:25;;;;;;;6.13;4.80;;;19.90;1.00;;;;;;5111092;28;20416;-75
2022/09/29 12:54:56;;;;;;;7.70;4.27;;;19.80;1.00;;;;;;5101388;28;20737;-74
2022/09/29 12:57:33;;;;;;;8.70;3.83;;;19.70;1.00;;;;;;5091082;28;20449;-74
2022/09/29 13:00:12;;;;;;;7.77;4.30;;;19.70;1.00;;;;;;5092098;28;20410;-74
2022/09/29 13:03:01;;;;;;;8.33;5.10;;;19.60;1.00;;;;;;5091171;28;20562;-75
2022/09/29 13:05:54;;;;;;;6.73;4.80;;;19.60;1.00;;;;;;5091030;28;20406;-74
2022/09/29 13:08:47;;;;;;;5.17;3.87;;;19.40;1.00;;;;;;5091911;28;20933;-74
2022/09/29 13:11:24;;;;;;;6.70;4.27;;;19.20;1.00;;;;;;5090765;28;20548;-76
2022/09/29 13:14:12;;;;;;;9.10;4.07;;;19.20;1.00;;;;;;5094099;28;20972;-74
2022/09/29 13:16:46;;;;;;;6.20;4.13;;;19.00;1.00;;;;;;5102611;28;20457;-75